createdAt,value
2018-03-15T00:01:54.185Z,12.05
2018-03-15T00:04:21.715Z,12.02
2018-03-15T00:06:49.230Z,11.80
2018-03-15T00:09:16.761Z,13.13
2018-03-15T00:11:44.273Z,13.00
2018-03-15T00:14:12.084Z,14.20
2018-03-15T00:16:39.597Z,14.00
2018-03-15T00:19:08.043Z,12.93
2018-03-15T00:21:36.627Z,12.98
2018-03-15T00:24:04.136Z,12.48
2018-03-15T00:26:31.695Z,12.82
2018-03-15T00:28:59.230Z,11.70
2018-03-15T00:31:26.743Z,13.30
2018-03-15T00:33:54.278Z,11.70
2018-03-15T00:36:21.791Z,14.48
2018-03-15T00:38:49.617Z,11.98
2018-03-15T00:41:17.132Z,12.40
2018-03-15T00:43:44.643Z,12.05
2018-03-15T00:46:12.181Z,11.50
2018-03-15T00:48:39.694Z,14.32
2018-03-15T00:51:07.234Z,14.30
2018-03-15T00:53:34.781Z,11.80
2018-03-15T00:56:02.402Z,12.52
2018-03-15T00:58:29.955Z,14.02
2018-03-15T01:00:57.461Z,11.50
2018-03-15T01:03:25.954Z,12.57
2018-03-15T01:05:53.465Z,12.48
2018-03-15T01:08:20.987Z,12.35
2018-03-15T01:10:48.526Z,11.95
2018-03-15T01:13:16.046Z,12.98
2018-03-15T01:15:43.937Z,14.13
2018-03-15T01:18:11.450Z,12.90
2018-03-15T01:20:38.969Z,13.95
2018-03-15T01:23:07.452Z,12.37
2018-03-15T01:25:34.972Z,12.80
2018-03-15T01:28:02.530Z,11.88
2018-03-15T01:30:30.046Z,12.95
2018-03-15T01:32:57.556Z,13.40
2018-03-15T01:35:25.118Z,14.75
2018-03-15T01:37:52.629Z,13.25
2018-03-15T01:40:20.181Z,14.95
2018-03-15T01:42:47.690Z,14.15
2018-03-15T01:45:15.207Z,14.87
2018-03-15T01:47:42.749Z,14.87
2018-03-15T01:50:10.275Z,14.23
2018-03-15T01:52:38.112Z,13.05
2018-03-15T01:55:05.635Z,15.65
2018-03-15T01:57:33.145Z,15.90
2018-03-15T02:00:00.712Z,16.02
2018-03-15T02:02:28.227Z,13.62
2018-03-15T02:04:55.933Z,11.55
2018-03-15T02:07:24.439Z,14.52
2018-03-15T02:09:51.953Z,12.68
2018-03-15T02:12:19.502Z,14.63
2018-03-15T02:14:47.025Z,12.60
2018-03-15T02:17:14.753Z,11.77
2018-03-15T02:19:42.285Z,15.70
2018-03-15T02:22:09.792Z,13.05
2018-03-15T02:24:37.335Z,16.30
2018-03-15T02:27:04.848Z,15.88
2018-03-15T02:29:32.552Z,16.92
2018-03-15T02:32:00.068Z,14.38
2018-03-15T02:34:27.579Z,15.10
2018-03-15T02:36:55.128Z,15.52
2018-03-15T02:39:23.628Z,15.88
2018-03-15T02:41:51.165Z,15.20
2018-03-15T02:44:18.679Z,15.75
2018-03-15T02:46:46.201Z,16.30
2018-03-15T02:49:13.743Z,17.73
2018-03-15T02:51:41.282Z,15.77
2018-03-15T02:54:08.839Z,16.95
2018-03-15T02:56:36.360Z,17.10
2018-03-15T02:59:03.869Z,16.05
2018-03-15T03:01:31.413Z,17.45
2018-03-15T03:03:58.930Z,17.80
2018-03-15T03:06:26.466Z,17.55
2018-03-15T03:08:53.981Z,18.00
2018-03-15T03:11:21.493Z,18.90
2018-03-15T03:13:49.034Z,19.48
2018-03-15T03:16:16.545Z,18.73
2018-03-15T03:18:44.354Z,17.55
2018-03-15T03:21:11.880Z,17.85
2018-03-15T03:23:39.394Z,15.32
2018-03-15T03:26:06.944Z,16.58
2018-03-15T03:28:34.451Z,16.10
2018-03-15T03:31:02.478Z,16.62
2018-03-15T03:33:30.080Z,16.17
2018-03-15T03:35:57.602Z,16.40
2018-03-15T03:38:25.146Z,15.65
2018-03-15T03:40:52.686Z,12.85
2018-03-15T03:43:20.553Z,14.32
2018-03-15T03:45:48.065Z,12.57
2018-03-15T03:48:15.579Z,15.18
2018-03-15T03:50:43.175Z,16.58
2018-03-15T03:53:10.668Z,17.80
2018-03-15T03:55:38.346Z,16.25
2018-03-15T03:58:05.857Z,18.48
2018-03-15T04:00:33.369Z,18.90
2018-03-15T04:03:00.933Z,20.40
2018-03-15T04:05:28.449Z,18.67
2018-03-15T04:07:56.295Z,19.30
2018-03-15T04:10:23.805Z,23.70
2018-03-15T04:12:51.318Z,22.13
2018-03-15T04:15:18.861Z,22.08
2018-03-15T04:17:46.369Z,22.60
2018-03-15T04:20:14.144Z,25.10
2018-03-15T04:22:41.665Z,21.20
2018-03-15T04:25:09.180Z,24.10
2018-03-15T04:27:36.725Z,20.62
2018-03-15T04:30:04.269Z,19.65
2018-03-15T04:32:31.913Z,21.10
2018-03-15T04:34:59.422Z,21.30
2018-03-15T04:37:26.937Z,20.25
2018-03-15T04:39:54.483Z,21.27
2018-03-15T04:42:21.994Z,19.65
2018-03-15T04:44:49.559Z,20.77
2018-03-15T04:47:17.077Z,21.05
2018-03-15T04:49:44.598Z,19.40
2018-03-15T04:52:12.133Z,21.85
2018-03-15T04:54:39.645Z,19.67
2018-03-15T04:57:07.201Z,22.48
2018-03-15T04:59:35.222Z,22.33
2018-03-15T05:02:02.734Z,24.05
2018-03-15T05:04:30.275Z,24.65
2018-03-15T05:06:57.800Z,25.20
2018-03-15T05:09:25.558Z,25.33
2018-03-15T05:11:53.069Z,21.25
2018-03-15T05:14:20.589Z,23.77
2018-03-15T05:16:48.125Z,24.98
2018-03-15T05:19:15.645Z,24.70
2018-03-15T05:21:43.434Z,22.60
2018-03-15T05:24:10.951Z,24.63
2018-03-15T05:26:38.470Z,21.85
2018-03-15T05:29:06.011Z,19.92
2018-03-15T05:31:33.522Z,21.87
2018-03-15T05:34:01.237Z,23.85
2018-03-15T05:36:28.760Z,21.20
2018-03-15T05:38:56.271Z,21.87
2018-03-15T05:41:23.831Z,22.42
2018-03-15T05:43:51.352Z,22.37
2018-03-15T05:46:19.125Z,23.27
2018-03-15T05:48:46.648Z,22.17
2018-03-15T05:51:14.157Z,24.80
2018-03-15T05:53:41.702Z,22.73
2018-03-15T05:56:09.221Z,25.50
2018-03-15T05:58:37.029Z,22.33
2018-03-15T06:01:04.550Z,22.33
2018-03-15T06:03:32.144Z,23.62
2018-03-15T06:06:00.027Z,23.02
2018-03-15T06:08:27.546Z,21.27
2018-03-15T06:10:55.113Z,22.23
2018-03-15T06:13:22.629Z,25.55
2018-03-15T06:15:50.158Z,22.45
2018-03-15T06:18:17.692Z,23.87
2018-03-15T06:20:45.226Z,23.35
2018-03-15T06:23:12.769Z,22.33
2018-03-15T06:25:40.359Z,22.75
2018-03-15T06:28:07.882Z,22.92
2018-03-15T06:30:35.426Z,21.87
2018-03-15T06:33:02.942Z,24.95
2018-03-15T06:35:30.637Z,22.80
2018-03-15T06:37:58.148Z,23.67
2018-03-15T06:40:25.662Z,22.87
2018-03-15T06:42:53.201Z,22.95
2018-03-15T06:45:20.714Z,21.52
2018-03-15T06:47:48.557Z,22.45
2018-03-15T06:50:16.072Z,22.48
2018-03-15T06:52:43.585Z,22.23
2018-03-15T06:55:11.145Z,22.52
2018-03-15T06:57:38.653Z,20.23
2018-03-15T07:00:06.313Z,21.37
2018-03-15T07:02:33.829Z,16.37
2018-03-15T07:05:01.334Z,20.00
2018-03-15T07:07:28.874Z,19.12
2018-03-15T07:09:56.399Z,19.37
2018-03-15T07:12:24.114Z,19.05
2018-03-15T07:14:51.631Z,19.87
2018-03-15T07:17:19.140Z,20.75
2018-03-15T07:19:46.686Z,21.77
2018-03-15T07:22:14.198Z,19.42
2018-03-15T07:24:41.750Z,20.08
2018-03-15T07:27:09.270Z,19.70
2018-03-15T07:29:36.778Z,20.08
2018-03-15T07:32:04.815Z,25.08
2018-03-15T07:34:32.379Z,22.17
2018-03-15T07:37:00.135Z,24.08
2018-03-15T07:39:27.667Z,23.67
2018-03-15T07:41:55.257Z,18.60
2018-03-15T07:44:22.807Z,18.50
2018-03-15T07:46:50.353Z,18.27
2018-03-15T07:49:18.006Z,20.42
2018-03-15T07:51:45.518Z,18.98
2018-03-15T07:54:13.042Z,18.10
2018-03-15T07:56:40.582Z,17.15
2018-03-15T07:59:08.096Z,16.83
2018-03-15T08:01:35.645Z,17.87
2018-03-15T08:04:03.158Z,19.48
2018-03-15T08:06:30.683Z,17.70
2018-03-15T08:08:58.230Z,18.05
2018-03-15T08:11:25.747Z,18.98
2018-03-15T08:13:53.363Z,15.85
2018-03-15T08:16:20.886Z,15.60
2018-03-15T08:18:48.419Z,14.50
2018-03-15T08:21:15.969Z,16.00
2018-03-15T08:23:43.485Z,16.20
2018-03-15T08:26:11.050Z,15.63
2018-03-15T08:28:38.565Z,15.38
2018-03-15T08:31:06.090Z,16.05
2018-03-15T08:33:33.648Z,17.42
2018-03-15T08:36:01.171Z,15.35
2018-03-15T08:38:28.724Z,16.00
2018-03-15T08:40:56.250Z,17.58
2018-03-15T08:43:23.769Z,16.60
2018-03-15T08:45:51.310Z,16.90
2018-03-15T08:48:18.825Z,17.30
2018-03-15T08:50:46.527Z,17.00
2018-03-15T08:53:14.021Z,16.30
2018-03-15T08:55:41.541Z,15.52
2018-03-15T08:58:09.117Z,14.93
2018-03-15T09:00:36.630Z,15.88
2018-03-15T09:03:04.203Z,14.13
2018-03-15T09:05:31.726Z,16.37
2018-03-15T09:07:59.245Z,15.00
2018-03-15T09:10:26.808Z,12.65
2018-03-15T09:12:54.343Z,15.30
2018-03-15T09:15:22.077Z,23.95
2018-03-15T09:17:49.602Z,22.35
2018-03-15T09:20:17.159Z,16.33
2018-03-15T09:22:44.702Z,34.08
2018-03-15T09:25:12.217Z,18.95
2018-03-15T09:27:40.045Z,16.42
2018-03-15T09:30:07.575Z,12.55
2018-03-15T09:32:35.127Z,15.93
2018-03-15T09:35:02.691Z,12.35
2018-03-15T09:37:30.241Z,15.48
2018-03-15T09:39:57.977Z,11.17
2018-03-15T09:42:25.524Z,10.90
2018-03-15T09:44:53.062Z,11.00
2018-03-15T09:47:20.641Z,10.38
2018-03-15T09:49:48.173Z,10.30
2018-03-15T09:52:15.874Z,10.43
2018-03-15T09:54:43.407Z,11.30
2018-03-15T09:57:10.958Z,10.40
2018-03-15T09:59:38.516Z,12.03
2018-03-15T10:02:06.058Z,15.80
2018-03-15T10:04:34.382Z,12.20
2018-03-15T10:07:01.928Z,10.10
2018-03-15T10:09:29.465Z,10.17
2018-03-15T10:11:57.027Z,10.60
2018-03-15T10:14:24.560Z,9.77
2018-03-15T10:16:52.292Z,9.73
2018-03-15T10:19:19.846Z,10.50
2018-03-15T10:21:47.488Z,10.20
2018-03-15T10:24:15.013Z,10.70
2018-03-15T10:26:42.558Z,10.30
2018-03-15T10:29:10.141Z,9.43
2018-03-15T10:31:37.678Z,10.77
2018-03-15T10:34:05.226Z,9.98
2018-03-15T10:36:32.805Z,11.65
2018-03-15T10:39:00.361Z,10.30
2018-03-15T10:41:27.958Z,9.23
2018-03-15T10:43:55.534Z,10.25
2018-03-15T10:46:23.943Z,10.50
2018-03-15T10:48:51.582Z,9.35
2018-03-15T10:51:19.116Z,9.67
2018-03-15T10:53:46.722Z,11.33
2018-03-15T10:56:14.253Z,11.20
2018-03-15T10:58:42.016Z,12.30
2018-03-15T11:01:09.562Z,33.50
2018-03-15T11:03:42.634Z,21.30
2018-03-15T11:06:29.625Z,17.60
2018-03-15T11:08:58.945Z,19.40
2018-03-15T11:11:26.483Z,12.23
2018-03-15T11:13:54.039Z,11.50
2018-03-15T11:16:21.685Z,11.10
2018-03-15T11:18:49.214Z,9.67
2018-03-15T11:21:17.085Z,9.17
2018-03-15T11:23:45.558Z,9.47
2018-03-15T11:26:13.002Z,8.43
2018-03-15T11:28:41.016Z,9.50
2018-03-15T11:31:08.537Z,8.63
2018-03-15T11:33:36.114Z,10.87
2018-03-15T11:36:03.694Z,10.20
2018-03-15T11:38:31.263Z,11.60
2018-03-15T11:40:58.801Z,9.87
2018-03-15T11:43:26.330Z,8.90
2018-03-15T11:45:54.105Z,12.37
2018-03-15T11:48:21.664Z,12.73
2018-03-15T11:50:49.203Z,10.13
2018-03-15T11:53:16.762Z,12.43
2018-03-15T11:55:44.309Z,11.90
2018-03-15T11:58:12.312Z,12.30
2018-03-15T12:00:39.844Z,11.77
2018-03-15T12:03:07.370Z,11.33
2018-03-15T12:05:34.942Z,11.40
2018-03-15T12:08:02.487Z,10.03
2018-03-15T12:10:30.217Z,13.57
2018-03-15T12:12:57.755Z,9.77
2018-03-15T12:15:25.285Z,9.17
2018-03-15T12:17:52.862Z,10.73
2018-03-15T12:20:20.377Z,11.50
2018-03-15T12:22:48.119Z,10.13
2018-03-15T12:25:15.633Z,12.63
2018-03-15T12:27:43.150Z,10.30
2018-03-15T12:30:10.697Z,10.70
2018-03-15T12:32:38.209Z,10.30
2018-03-15T12:35:05.757Z,12.20
2018-03-15T12:37:33.282Z,11.63
2018-03-15T12:40:00.798Z,10.90
2018-03-15T12:42:28.342Z,10.00
2018-03-15T12:44:55.895Z,10.27
2018-03-15T12:47:23.705Z,10.47
2018-03-15T12:49:51.230Z,11.67
2018-03-15T12:52:18.752Z,13.97
2018-03-15T12:54:46.302Z,12.00
2018-03-15T12:57:13.827Z,10.87
2018-03-15T12:59:41.798Z,9.57
2018-03-15T13:02:09.312Z,12.20
2018-03-15T13:04:36.840Z,10.20
2018-03-15T13:07:04.409Z,12.10
2018-03-15T13:09:31.927Z,11.50
2018-03-15T13:11:59.482Z,10.70
2018-03-15T13:14:27.018Z,11.87
2018-03-15T13:16:54.865Z,11.60
2018-03-15T13:19:22.420Z,10.20
2018-03-15T13:21:49.938Z,9.97
2018-03-15T13:24:17.814Z,11.33
2018-03-15T13:26:45.341Z,11.30
2018-03-15T13:29:12.864Z,11.63
2018-03-15T13:31:40.414Z,11.60
2018-03-15T13:34:08.379Z,11.40
2018-03-15T13:36:35.939Z,10.97
2018-03-15T13:39:03.454Z,10.23
2018-03-15T13:41:30.974Z,10.03
2018-03-15T13:43:58.516Z,10.60
2018-03-15T13:46:26.039Z,9.07
2018-03-15T13:48:53.838Z,9.80
2018-03-15T13:51:21.357Z,11.63
2018-03-15T13:53:48.869Z,9.87
2018-03-15T13:56:16.411Z,10.43
2018-03-15T13:58:43.929Z,11.30
2018-03-15T14:01:11.722Z,11.27
2018-03-15T14:03:39.295Z,11.40
2018-03-15T14:06:06.785Z,11.17
2018-03-15T14:08:34.329Z,10.83
2018-03-15T14:11:01.844Z,10.70
2018-03-15T14:13:29.621Z,10.70
2018-03-15T14:15:57.150Z,11.70
2018-03-15T14:18:24.674Z,12.10
2018-03-15T14:20:52.238Z,11.88
2018-03-15T14:23:19.779Z,11.55
2018-03-15T14:25:47.449Z,12.90
2018-03-15T14:28:14.969Z,10.85
2018-03-15T14:30:42.702Z,11.00
2018-03-15T14:33:10.393Z,10.32
2018-03-15T14:35:37.954Z,12.07
2018-03-15T14:38:05.626Z,11.52
2018-03-15T14:40:33.400Z,13.10
2018-03-15T14:43:01.265Z,13.43
2018-03-15T14:45:29.034Z,12.65
2018-03-15T14:47:56.581Z,12.20
2018-03-15T14:50:24.301Z,11.95
2018-03-15T14:52:52.015Z,12.55
2018-03-15T14:55:19.672Z,12.95
2018-03-15T14:57:47.340Z,13.40
2018-03-15T15:00:15.102Z,12.90
2018-03-15T15:02:43.174Z,12.05
2018-03-15T15:05:10.738Z,12.13
2018-03-15T15:07:38.468Z,12.27
2018-03-15T15:10:06.030Z,12.27
2018-03-15T15:12:33.583Z,14.68
2018-03-15T15:15:01.160Z,13.75
2018-03-15T15:17:28.864Z,14.25
2018-03-15T15:19:56.441Z,13.13
2018-03-15T15:22:24.044Z,12.93
2018-03-15T15:24:51.799Z,11.70
2018-03-15T15:27:19.535Z,12.75
2018-03-15T15:29:47.232Z,14.20
2018-03-15T15:32:14.762Z,14.60
2018-03-15T15:34:42.670Z,12.95
2018-03-15T15:37:10.208Z,13.35
2018-03-15T15:39:37.996Z,13.30
2018-03-15T15:42:05.654Z,15.77
2018-03-15T15:44:33.539Z,12.82
2018-03-15T15:47:01.287Z,13.80
2018-03-15T15:49:29.156Z,15.32
2018-03-15T15:51:57.564Z,13.70
2018-03-15T15:54:25.506Z,13.82
2018-03-15T15:56:53.782Z,14.50
2018-03-15T15:59:21.544Z,15.38
2018-03-15T16:01:49.305Z,13.20
2018-03-15T16:04:17.172Z,13.43
2018-03-15T16:06:45.039Z,14.05
2018-03-15T16:09:13.134Z,15.38
2018-03-15T16:11:40.861Z,12.93
2018-03-15T16:14:08.534Z,16.17
2018-03-15T16:16:36.765Z,14.82
2018-03-15T16:19:04.377Z,13.43
2018-03-15T16:21:32.243Z,14.63
2018-03-15T16:24:00.308Z,14.20
2018-03-15T16:26:29.607Z,16.33
2018-03-15T16:28:57.680Z,14.90
2018-03-15T16:31:25.617Z,13.88
2018-03-15T16:33:53.514Z,14.55
2018-03-15T16:36:21.381Z,14.98
2018-03-15T16:38:49.217Z,15.90
2018-03-15T16:41:17.216Z,14.65
2018-03-15T16:43:45.491Z,13.27
2018-03-15T16:46:13.872Z,12.95
2018-03-15T16:48:42.863Z,14.02
2018-03-15T16:51:10.685Z,14.48
2018-03-15T16:53:38.699Z,12.80
2018-03-15T16:56:06.585Z,13.93
2018-03-15T16:58:34.501Z,13.43
2018-03-15T17:01:02.290Z,14.15
2018-03-15T17:03:29.910Z,14.55
2018-03-15T17:05:57.696Z,16.35
2018-03-15T17:08:25.386Z,13.73
2018-03-15T17:10:53.251Z,14.40
2018-03-15T17:13:21.227Z,14.48
2018-03-15T17:15:48.971Z,12.20
2018-03-15T17:18:17.055Z,13.23
2018-03-15T17:20:44.788Z,14.05
2018-03-15T17:23:12.481Z,14.70
2018-03-15T17:25:40.246Z,13.45
2018-03-15T17:28:07.860Z,14.93
2018-03-15T17:30:35.877Z,13.93
2018-03-15T17:33:03.846Z,13.88
2018-03-15T17:35:31.609Z,15.63
2018-03-15T17:37:59.548Z,15.52
2018-03-15T17:40:27.955Z,13.85
2018-03-15T17:42:56.556Z,13.70
2018-03-15T17:45:24.615Z,13.23
2018-03-15T17:47:52.476Z,14.95
2018-03-15T17:50:20.413Z,13.70
2018-03-15T17:52:48.311Z,15.48
2018-03-15T17:55:16.690Z,15.20
2018-03-15T17:57:44.562Z,14.82
2018-03-15T18:00:12.268Z,14.50
2018-03-15T18:02:40.147Z,13.95
2018-03-15T18:05:08.564Z,14.27
2018-03-15T18:07:36.534Z,16.80
2018-03-15T18:10:05.425Z,15.50
2018-03-15T18:12:34.008Z,14.65
2018-03-15T18:15:02.254Z,13.70
2018-03-15T18:17:30.118Z,15.68
2018-03-15T18:19:58.119Z,13.60
2018-03-15T18:22:26.088Z,13.25
2018-03-15T18:24:54.945Z,12.82
2018-03-15T18:27:23.055Z,13.98
2018-03-15T18:29:51.020Z,12.80
2018-03-15T18:32:18.887Z,14.50
2018-03-15T18:34:47.161Z,13.15
2018-03-15T18:37:15.335Z,21.50
2018-03-15T18:39:43.406Z,25.90
2018-03-15T18:42:11.580Z,22.20
2018-03-15T18:44:40.355Z,17.05
2018-03-15T18:47:08.256Z,15.02
2018-03-15T18:49:36.408Z,14.05
2018-03-15T18:52:04.380Z,13.80
2018-03-15T18:54:32.624Z,14.32
2018-03-15T18:57:00.491Z,17.83
2018-03-15T18:59:28.927Z,15.02
2018-03-15T19:01:56.875Z,16.80
2018-03-15T19:04:24.801Z,14.50
2018-03-15T19:06:53.011Z,14.95
2018-03-15T19:09:20.877Z,15.25
2018-03-15T19:11:48.740Z,15.38
2018-03-15T19:14:16.710Z,15.27
2018-03-15T19:16:45.517Z,15.13
2018-03-15T19:19:13.467Z,16.12
2018-03-15T19:21:41.335Z,14.98
2018-03-15T19:24:09.712Z,15.88
2018-03-15T19:26:37.475Z,15.20
2018-03-15T19:29:05.546Z,15.85
2018-03-15T19:31:33.517Z,15.98
2018-03-15T19:34:01.383Z,16.10
2018-03-15T19:36:29.761Z,16.08
2018-03-15T19:38:57.832Z,16.95
2018-03-15T19:41:25.567Z,15.07
2018-03-15T19:43:54.779Z,19.05
2018-03-15T19:46:23.172Z,14.40
2018-03-15T19:48:51.245Z,15.30
2018-03-15T19:51:19.213Z,15.40
2018-03-15T19:53:47.082Z,14.07
2018-03-15T19:56:15.273Z,13.93
2018-03-15T19:58:43.085Z,14.65
2018-03-15T20:01:11.293Z,14.40
2018-03-15T20:03:39.176Z,12.77
2018-03-15T20:06:07.086Z,13.95
2018-03-15T20:08:35.200Z,14.80
2018-03-15T20:11:03.066Z,11.45
2018-03-15T20:13:31.711Z,11.32
2018-03-15T20:16:00.721Z,10.68
2018-03-15T20:18:28.919Z,10.40
2018-03-15T20:20:57.098Z,9.52
2018-03-15T20:26:31.841Z,9.55
2018-03-15T20:29:00.323Z,10.07
2018-03-15T20:31:28.292Z,8.70
2018-03-15T20:34:02.711Z,10.75
2018-03-15T20:36:30.679Z,8.75
2018-03-15T20:38:58.955Z,9.65
2018-03-15T20:41:28.152Z,8.25
2018-03-15T20:43:56.020Z,8.98
2018-03-15T20:46:29.624Z,9.02
2018-03-15T20:49:03.368Z,8.48
2018-03-15T20:51:32.214Z,9.40
2018-03-15T20:54:00.025Z,9.20
2018-03-15T20:56:27.915Z,7.65
2018-03-15T20:58:55.759Z,9.45
2018-03-15T21:01:23.984Z,8.10
2018-03-15T21:03:51.954Z,7.90
2018-03-15T21:06:20.131Z,10.27
2018-03-15T21:08:47.999Z,9.25
2018-03-15T21:11:15.871Z,7.72
2018-03-15T21:13:43.685Z,8.90
2018-03-15T21:16:11.525Z,8.93
2018-03-15T21:18:39.357Z,7.05
2018-03-15T21:21:07.759Z,7.97
2018-03-15T21:23:35.551Z,8.15
2018-03-15T21:26:03.620Z,7.80
2018-03-15T21:28:31.510Z,8.52
2018-03-15T21:30:59.407Z,9.38
2018-03-15T21:33:27.300Z,9.10
2018-03-15T21:35:55.140Z,9.35
2018-03-15T21:38:22.877Z,9.20
2018-03-15T21:40:51.385Z,8.23
2018-03-15T21:43:19.354Z,8.57
2018-03-15T21:45:47.743Z,8.50
2018-03-15T21:48:15.394Z,8.65
2018-03-15T21:50:43.330Z,7.50
2018-03-15T21:53:11.844Z,8.77
2018-03-15T21:55:39.719Z,8.40
2018-03-15T21:58:07.564Z,8.50
2018-03-15T22:00:35.328Z,8.55
2018-03-15T22:03:03.003Z,8.13
2018-03-15T22:05:30.881Z,9.95
2018-03-15T22:07:58.737Z,10.55
2018-03-15T22:10:26.670Z,8.00
2018-03-15T22:12:54.573Z,8.43
2018-03-15T22:15:22.324Z,9.43
2018-03-15T22:17:50.139Z,9.93
2018-03-15T22:20:18.173Z,9.80
2018-03-15T22:22:45.938Z,9.50
2018-03-15T22:25:13.521Z,9.27
2018-03-15T22:27:41.358Z,9.45
2018-03-15T22:30:09.023Z,8.13
2018-03-15T22:32:36.614Z,11.52
2018-03-15T22:35:04.170Z,9.32
2018-03-15T22:37:31.901Z,10.25
2018-03-15T22:39:59.547Z,9.35
2018-03-15T22:42:27.162Z,10.98
2018-03-15T22:44:54.786Z,14.18
2018-03-15T22:47:22.867Z,11.00
2018-03-15T22:49:50.404Z,11.77
2018-03-15T22:52:17.925Z,11.27
2018-03-15T22:54:45.513Z,10.90
2018-03-15T22:57:13.029Z,10.30
2018-03-15T22:59:40.596Z,9.80
2018-03-15T23:02:08.123Z,10.50
2018-03-15T23:04:35.772Z,10.45
2018-03-15T23:07:03.333Z,11.25
2018-03-15T23:09:30.854Z,11.05
2018-03-15T23:11:58.437Z,11.00
2018-03-15T23:14:25.965Z,10.25
2018-03-15T23:16:53.487Z,10.73
2018-03-15T23:19:21.059Z,9.90
2018-03-15T23:21:48.578Z,11.52
2018-03-15T23:24:16.125Z,10.60
2018-03-15T23:26:43.650Z,11.18
2018-03-15T23:29:11.173Z,10.82
2018-03-15T23:31:38.715Z,10.75
2018-03-15T23:34:06.233Z,10.73
2018-03-15T23:36:33.806Z,9.77
2018-03-15T23:39:01.337Z,10.75
2018-03-15T23:41:28.858Z,9.63
2018-03-15T23:43:56.424Z,11.98
2018-03-15T23:46:23.941Z,9.32
2018-03-15T23:48:51.490Z,9.18
2018-03-15T23:51:19.007Z,8.57
2018-03-15T23:53:46.526Z,9.15
2018-03-15T23:56:14.212Z,8.23
2018-03-15T23:58:41.714Z,8.68
